sensor_id;sensor_type;location;lat;lon;timestamp;P1;durP1;ratioP1;P2;durP2;ratioP2
42176;SDS011;28126;51.060;19.460;2022-11-21T00:02:12;17.17;;;15.35;;
42176;SDS011;28126;51.060;19.460;2022-11-21T00:05:16;17.52;;;15.40;;
42176;SDS011;28126;51.060;19.460;2022-11-21T00:08:19;18.37;;;15.58;;
42176;SDS011;28126;51.060;19.460;2022-11-21T00:11:23;18.25;;;15.08;;
42176;SDS011;28126;51.060;19.460;2022-11-21T00:14:26;19.62;;;15.83;;
42176;SDS011;28126;51.060;19.460;2022-11-21T00:17:29;18.75;;;15.72;;
42176;SDS011;28126;51.060;19.460;2022-11-21T00:20:30;18.87;;;16.05;;
42176;SDS011;28126;51.060;19.460;2022-11-21T00:23:33;19.32;;;15.15;;
42176;SDS011;28126;51.060;19.460;2022-11-21T00:26:35;19.07;;;16.07;;
42176;SDS011;28126;51.060;19.460;2022-11-21T00:29:41;18.70;;;15.43;;
42176;SDS011;28126;51.060;19.460;2022-11-21T00:32:45;19.77;;;15.40;;
42176;SDS011;28126;51.060;19.460;2022-11-21T00:35:48;18.27;;;15.10;;
42176;SDS011;28126;51.060;19.460;2022-11-21T00:38:50;18.05;;;15.13;;
42176;SDS011;28126;51.060;19.460;2022-11-21T00:41:54;16.75;;;14.50;;
42176;SDS011;28126;51.060;19.460;2022-11-21T00:44:56;17.07;;;14.60;;
42176;SDS011;28126;51.060;19.460;2022-11-21T00:47:59;17.65;;;14.10;;
42176;SDS011;28126;51.060;19.460;2022-11-21T00:51:02;17.35;;;14.85;;
42176;SDS011;28126;51.060;19.460;2022-11-21T00:54:07;19.12;;;14.20;;
42176;SDS011;28126;51.060;19.460;2022-11-21T00:57:11;18.10;;;14.95;;
42176;SDS011;28126;51.060;19.460;2022-11-21T01:00:16;18.25;;;14.80;;
42176;SDS011;28126;51.060;19.460;2022-11-21T01:03:20;17.77;;;13.65;;
42176;SDS011;28126;51.060;19.460;2022-11-21T01:06:22;16.32;;;14.23;;
42176;SDS011;28126;51.060;19.460;2022-11-21T01:09:24;17.48;;;13.75;;
42176;SDS011;28126;51.060;19.460;2022-11-21T01:12:28;15.30;;;13.70;;
42176;SDS011;28126;51.060;19.460;2022-11-21T01:15:32;15.65;;;13.80;;
42176;SDS011;28126;51.060;19.460;2022-11-21T01:18:35;18.45;;;14.03;;
42176;SDS011;28126;51.060;19.460;2022-11-21T01:21:38;18.42;;;14.47;;
42176;SDS011;28126;51.060;19.460;2022-11-21T01:24:42;15.32;;;13.18;;
42176;SDS011;28126;51.060;19.460;2022-11-21T01:27:48;16.73;;;13.50;;
42176;SDS011;28126;51.060;19.460;2022-11-21T01:30:50;15.68;;;13.30;;
42176;SDS011;28126;51.060;19.460;2022-11-21T01:33:53;16.62;;;13.62;;
42176;SDS011;28126;51.060;19.460;2022-11-21T01:36:57;15.93;;;13.38;;
42176;SDS011;28126;51.060;19.460;2022-11-21T01:40:01;16.82;;;13.90;;
42176;SDS011;28126;51.060;19.460;2022-11-21T01:43:11;14.93;;;13.20;;
42176;SDS011;28126;51.060;19.460;2022-11-21T01:46:20;17.37;;;13.48;;
42176;SDS011;28126;51.060;19.460;2022-11-21T01:49:24;15.40;;;13.15;;
42176;SDS011;28126;51.060;19.460;2022-11-21T01:52:29;17.30;;;14.20;;
42176;SDS011;28126;51.060;19.460;2022-11-21T01:55:33;15.13;;;13.32;;
42176;SDS011;28126;51.060;19.460;2022-11-21T01:58:36;16.35;;;13.85;;
42176;SDS011;28126;51.060;19.460;2022-11-21T02:01:41;14.58;;;12.68;;
42176;SDS011;28126;51.060;19.460;2022-11-21T02:04:44;16.10;;;14.07;;
42176;SDS011;28126;51.060;19.460;2022-11-21T02:07:48;15.85;;;13.75;;
42176;SDS011;28126;51.060;19.460;2022-11-21T02:11:03;14.87;;;12.80;;
42176;SDS011;28126;51.060;19.460;2022-11-21T02:14:23;15.75;;;13.18;;
42176;SDS011;28126;51.060;19.460;2022-11-21T02:17:28;15.55;;;12.95;;
42176;SDS011;28126;51.060;19.460;2022-11-21T02:20:33;15.28;;;13.38;;
42176;SDS011;28126;51.060;19.460;2022-11-21T02:23:51;15.60;;;12.80;;
42176;SDS011;28126;51.060;19.460;2022-11-21T02:26:55;15.45;;;12.40;;
42176;SDS011;28126;51.060;19.460;2022-11-21T02:30:03;13.62;;;12.10;;
42176;SDS011;28126;51.060;19.460;2022-11-21T02:33:09;15.58;;;13.18;;
42176;SDS011;28126;51.060;19.460;2022-11-21T02:39:42;14.60;;;12.88;;
42176;SDS011;28126;51.060;19.460;2022-11-21T02:42:57;15.10;;;13.08;;
42176;SDS011;28126;51.060;19.460;2022-11-21T02:46:03;14.47;;;12.90;;
42176;SDS011;28126;51.060;19.460;2022-11-21T02:49:07;16.60;;;12.13;;
42176;SDS011;28126;51.060;19.460;2022-11-21T02:52:11;15.70;;;12.65;;
42176;SDS011;28126;51.060;19.460;2022-11-21T02:55:13;14.07;;;12.15;;
42176;SDS011;28126;51.060;19.460;2022-11-21T02:58:16;15.18;;;12.70;;
42176;SDS011;28126;51.060;19.460;2022-11-21T03:01:20;13.13;;;11.75;;
42176;SDS011;28126;51.060;19.460;2022-11-21T03:04:22;14.60;;;12.33;;
42176;SDS011;28126;51.060;19.460;2022-11-21T03:07:26;15.23;;;13.00;;
42176;SDS011;28126;51.060;19.460;2022-11-21T03:10:29;14.10;;;12.00;;
42176;SDS011;28126;51.060;19.460;2022-11-21T03:13:33;14.53;;;12.65;;
42176;SDS011;28126;51.060;19.460;2022-11-21T03:16:37;14.35;;;12.60;;
42176;SDS011;28126;51.060;19.460;2022-11-21T03:19:40;16.62;;;12.70;;
42176;SDS011;28126;51.060;19.460;2022-11-21T03:22:43;14.68;;;12.03;;
42176;SDS011;28126;51.060;19.460;2022-11-21T03:25:48;14.87;;;12.00;;
42176;SDS011;28126;51.060;19.460;2022-11-21T03:28:52;14.55;;;12.03;;
42176;SDS011;28126;51.060;19.460;2022-11-21T03:31:55;14.45;;;12.95;;
42176;SDS011;28126;51.060;19.460;2022-11-21T03:35:00;14.55;;;11.75;;
42176;SDS011;28126;51.060;19.460;2022-11-21T03:38:03;14.78;;;11.93;;
42176;SDS011;28126;51.060;19.460;2022-11-21T03:41:07;13.00;;;11.63;;
42176;SDS011;28126;51.060;19.460;2022-11-21T03:44:11;14.65;;;12.35;;
42176;SDS011;28126;51.060;19.460;2022-11-21T03:47:13;14.63;;;12.80;;
42176;SDS011;28126;51.060;19.460;2022-11-21T03:50:15;14.70;;;12.47;;
42176;SDS011;28126;51.060;19.460;2022-11-21T03:53:21;16.52;;;12.90;;
42176;SDS011;28126;51.060;19.460;2022-11-21T03:56:24;14.35;;;12.73;;
42176;SDS011;28126;51.060;19.460;2022-11-21T03:59:27;15.23;;;12.37;;
42176;SDS011;28126;51.060;19.460;2022-11-21T04:02:29;13.60;;;11.93;;
42176;SDS011;28126;51.060;19.460;2022-11-21T04:05:33;15.88;;;12.70;;
42176;SDS011;28126;51.060;19.460;2022-11-21T04:08:37;14.20;;;12.37;;
42176;SDS011;28126;51.060;19.460;2022-11-21T04:11:40;15.18;;;12.73;;
42176;SDS011;28126;51.060;19.460;2022-11-21T04:14:43;15.60;;;12.47;;
42176;SDS011;28126;51.060;19.460;2022-11-21T04:17:46;15.50;;;12.78;;
42176;SDS011;28126;51.060;19.460;2022-11-21T04:20:56;15.25;;;13.38;;
42176;SDS011;28126;51.060;19.460;2022-11-21T04:24:00;13.68;;;12.20;;
42176;SDS011;28126;51.060;19.460;2022-11-21T04:27:04;14.38;;;12.75;;
42176;SDS011;28126;51.060;19.460;2022-11-21T04:30:06;13.85;;;11.68;;
42176;SDS011;28126;51.060;19.460;2022-11-21T04:33:10;13.40;;;11.97;;
42176;SDS011;28126;51.060;19.460;2022-11-21T04:36:14;14.93;;;12.43;;
42176;SDS011;28126;51.060;19.460;2022-11-21T04:39:18;16.27;;;12.63;;
42176;SDS011;28126;51.060;19.460;2022-11-21T04:42:21;14.98;;;12.40;;
42176;SDS011;28126;51.060;19.460;2022-11-21T04:45:24;14.83;;;12.70;;
42176;SDS011;28126;51.060;19.460;2022-11-21T04:48:26;15.50;;;12.73;;
42176;SDS011;28126;51.060;19.460;2022-11-21T04:51:29;15.80;;;12.55;;
42176;SDS011;28126;51.060;19.460;2022-11-21T04:54:30;15.25;;;12.60;;
42176;SDS011;28126;51.060;19.460;2022-11-21T04:57:33;14.45;;;12.75;;
42176;SDS011;28126;51.060;19.460;2022-11-21T05:00:36;16.10;;;12.30;;
42176;SDS011;28126;51.060;19.460;2022-11-21T05:03:39;16.27;;;12.82;;
42176;SDS011;28126;51.060;19.460;2022-11-21T05:06:41;15.88;;;13.50;;
42176;SDS011;28126;51.060;19.460;2022-11-21T05:09:44;14.65;;;12.55;;
42176;SDS011;28126;51.060;19.460;2022-11-21T05:12:45;14.93;;;12.93;;
42176;SDS011;28126;51.060;19.460;2022-11-21T05:16:09;15.65;;;12.73;;
42176;SDS011;28126;51.060;19.460;2022-11-21T05:19:11;15.35;;;12.33;;
42176;SDS011;28126;51.060;19.460;2022-11-21T05:22:15;16.57;;;12.88;;
42176;SDS011;28126;51.060;19.460;2022-11-21T05:25:18;14.50;;;12.03;;
42176;SDS011;28126;51.060;19.460;2022-11-21T05:28:19;14.70;;;12.68;;
42176;SDS011;28126;51.060;19.460;2022-11-21T05:31:22;14.98;;;11.88;;
42176;SDS011;28126;51.060;19.460;2022-11-21T05:34:24;14.55;;;11.83;;
42176;SDS011;28126;51.060;19.460;2022-11-21T05:37:27;13.68;;;11.75;;
42176;SDS011;28126;51.060;19.460;2022-11-21T05:40:29;14.55;;;12.85;;
42176;SDS011;28126;51.060;19.460;2022-11-21T05:43:31;14.70;;;12.00;;
42176;SDS011;28126;51.060;19.460;2022-11-21T05:46:49;13.50;;;11.75;;
42176;SDS011;28126;51.060;19.460;2022-11-21T05:49:51;15.13;;;12.33;;
42176;SDS011;28126;51.060;19.460;2022-11-21T05:52:53;15.10;;;13.05;;
42176;SDS011;28126;51.060;19.460;2022-11-21T05:56:00;15.40;;;11.75;;
42176;SDS011;28126;51.060;19.460;2022-11-21T05:59:07;14.70;;;11.50;;
42176;SDS011;28126;51.060;19.460;2022-11-21T06:02:12;14.55;;;11.70;;
42176;SDS011;28126;51.060;19.460;2022-11-21T06:05:32;13.00;;;11.25;;
42176;SDS011;28126;51.060;19.460;2022-11-21T06:08:39;13.98;;;11.48;;
42176;SDS011;28126;51.060;19.460;2022-11-21T06:11:42;14.53;;;12.30;;
42176;SDS011;28126;51.060;19.460;2022-11-21T06:14:45;16.57;;;12.43;;
42176;SDS011;28126;51.060;19.460;2022-11-21T06:17:46;15.53;;;12.63;;
42176;SDS011;28126;51.060;19.460;2022-11-21T06:20:49;14.10;;;11.73;;
42176;SDS011;28126;51.060;19.460;2022-11-21T06:23:53;14.70;;;12.23;;
42176;SDS011;28126;51.060;19.460;2022-11-21T06:26:59;14.00;;;12.28;;
42176;SDS011;28126;51.060;19.460;2022-11-21T06:30:00;16.10;;;12.63;;
42176;SDS011;28126;51.060;19.460;2022-11-21T06:33:05;14.80;;;12.35;;
42176;SDS011;28126;51.060;19.460;2022-11-21T06:36:12;14.43;;;11.68;;
42176;SDS011;28126;51.060;19.460;2022-11-21T06:39:13;15.10;;;12.20;;
42176;SDS011;28126;51.060;19.460;2022-11-21T06:42:15;14.40;;;11.83;;
42176;SDS011;28126;51.060;19.460;2022-11-21T06:45:19;14.28;;;12.30;;
42176;SDS011;28126;51.060;19.460;2022-11-21T06:48:22;16.40;;;12.85;;
42176;SDS011;28126;51.060;19.460;2022-11-21T06:51:24;13.25;;;11.85;;
42176;SDS011;28126;51.060;19.460;2022-11-21T06:54:28;17.62;;;12.65;;
42176;SDS011;28126;51.060;19.460;2022-11-21T06:57:30;15.13;;;12.95;;
42176;SDS011;28126;51.060;19.460;2022-11-21T07:00:32;14.47;;;12.53;;
42176;SDS011;28126;51.060;19.460;2022-11-21T07:03:35;17.57;;;14.07;;
42176;SDS011;28126;51.060;19.460;2022-11-21T07:06:37;16.10;;;13.62;;
42176;SDS011;28126;51.060;19.460;2022-11-21T07:09:39;15.75;;;13.32;;
42176;SDS011;28126;51.060;19.460;2022-11-21T07:12:43;15.35;;;12.78;;
42176;SDS011;28126;51.060;19.460;2022-11-21T07:16:05;19.00;;;13.30;;
42176;SDS011;28126;51.060;19.460;2022-11-21T07:19:09;15.03;;;12.95;;
42176;SDS011;28126;51.060;19.460;2022-11-21T07:22:13;15.90;;;13.70;;
42176;SDS011;28126;51.060;19.460;2022-11-21T07:25:17;15.32;;;13.43;;
42176;SDS011;28126;51.060;19.460;2022-11-21T07:28:19;15.50;;;12.60;;
42176;SDS011;28126;51.060;19.460;2022-11-21T07:31:22;15.58;;;12.43;;
42176;SDS011;28126;51.060;19.460;2022-11-21T07:34:24;21.80;;;14.33;;
42176;SDS011;28126;51.060;19.460;2022-11-21T07:37:26;18.70;;;14.15;;
42176;SDS011;28126;51.060;19.460;2022-11-21T07:40:27;17.02;;;13.60;;
42176;SDS011;28126;51.060;19.460;2022-11-21T07:43:30;17.37;;;12.03;;
42176;SDS011;28126;51.060;19.460;2022-11-21T07:46:32;19.95;;;13.62;;
42176;SDS011;28126;51.060;19.460;2022-11-21T07:49:34;18.02;;;12.65;;
42176;SDS011;28126;51.060;19.460;2022-11-21T07:52:35;20.08;;;12.37;;
42176;SDS011;28126;51.060;19.460;2022-11-21T07:55:39;30.32;;;13.83;;
42176;SDS011;28126;51.060;19.460;2022-11-21T07:58:42;16.95;;;13.00;;
42176;SDS011;28126;51.060;19.460;2022-11-21T08:01:44;13.98;;;11.80;;
42176;SDS011;28126;51.060;19.460;2022-11-21T08:04:46;14.15;;;12.10;;
42176;SDS011;28126;51.060;19.460;2022-11-21T08:07:49;17.32;;;12.33;;
42176;SDS011;28126;51.060;19.460;2022-11-21T08:10:52;17.60;;;12.18;;
42176;SDS011;28126;51.060;19.460;2022-11-21T08:13:54;15.55;;;11.25;;
42176;SDS011;28126;51.060;19.460;2022-11-21T08:16:56;17.15;;;12.15;;
42176;SDS011;28126;51.060;19.460;2022-11-21T08:19:58;16.97;;;12.88;;
42176;SDS011;28126;51.060;19.460;2022-11-21T08:23:02;20.60;;;13.38;;
42176;SDS011;28126;51.060;19.460;2022-11-21T08:26:07;21.95;;;14.55;;
42176;SDS011;28126;51.060;19.460;2022-11-21T08:29:10;18.92;;;13.78;;
42176;SDS011;28126;51.060;19.460;2022-11-21T08:32:16;18.40;;;14.55;;
42176;SDS011;28126;51.060;19.460;2022-11-21T08:35:19;21.65;;;16.27;;
42176;SDS011;28126;51.060;19.460;2022-11-21T08:38:23;23.45;;;17.82;;
42176;SDS011;28126;51.060;19.460;2022-11-21T08:41:25;25.55;;;18.48;;
42176;SDS011;28126;51.060;19.460;2022-11-21T08:44:45;25.55;;;20.57;;
42176;SDS011;28126;51.060;19.460;2022-11-21T08:47:47;29.70;;;20.92;;
42176;SDS011;28126;51.060;19.460;2022-11-21T08:50:50;21.42;;;18.45;;
42176;SDS011;28126;51.060;19.460;2022-11-21T08:53:54;24.77;;;19.12;;
42176;SDS011;28126;51.060;19.460;2022-11-21T08:56:56;21.77;;;18.85;;
42176;SDS011;28126;51.060;19.460;2022-11-21T08:59:57;23.83;;;19.12;;
42176;SDS011;28126;51.060;19.460;2022-11-21T09:03:04;23.60;;;17.70;;
42176;SDS011;28126;51.060;19.460;2022-11-21T09:06:07;23.98;;;19.60;;
42176;SDS011;28126;51.060;19.460;2022-11-21T09:09:11;23.20;;;19.25;;
42176;SDS011;28126;51.060;19.460;2022-11-21T09:12:14;23.02;;;19.07;;
42176;SDS011;28126;51.060;19.460;2022-11-21T09:15:17;23.25;;;18.60;;
42176;SDS011;28126;51.060;19.460;2022-11-21T09:18:37;21.85;;;18.42;;
42176;SDS011;28126;51.060;19.460;2022-11-21T09:21:39;22.98;;;18.23;;
42176;SDS011;28126;51.060;19.460;2022-11-21T09:24:41;22.05;;;18.00;;
42176;SDS011;28126;51.060;19.460;2022-11-21T09:27:43;20.70;;;18.37;;
42176;SDS011;28126;51.060;19.460;2022-11-21T09:30:45;19.48;;;17.17;;
42176;SDS011;28126;51.060;19.460;2022-11-21T09:33:47;22.37;;;18.23;;
42176;SDS011;28126;51.060;19.460;2022-11-21T09:36:49;21.20;;;17.48;;
42176;SDS011;28126;51.060;19.460;2022-11-21T09:39:52;21.42;;;18.07;;
42176;SDS011;28126;51.060;19.460;2022-11-21T09:46:28;19.35;;;16.42;;
42176;SDS011;28126;51.060;19.460;2022-11-21T09:49:37;23.27;;;17.48;;
42176;SDS011;28126;51.060;19.460;2022-11-21T09:56:00;20.17;;;17.00;;
42176;SDS011;28126;51.060;19.460;2022-11-21T10:02:34;23.25;;;18.65;;
42176;SDS011;28126;51.060;19.460;2022-11-21T10:05:44;23.07;;;18.48;;
42176;SDS011;28126;51.060;19.460;2022-11-21T10:26:11;20.90;;;17.62;;
42176;SDS011;28126;51.060;19.460;2022-11-21T10:32:36;21.93;;;17.40;;
42176;SDS011;28126;51.060;19.460;2022-11-21T10:35:43;21.97;;;18.95;;
42176;SDS011;28126;51.060;19.460;2022-11-21T10:38:48;20.23;;;17.62;;
42176;SDS011;28126;51.060;19.460;2022-11-21T10:42:00;23.67;;;18.52;;
42176;SDS011;28126;51.060;19.460;2022-11-21T10:45:30;22.45;;;16.82;;
42176;SDS011;28126;51.060;19.460;2022-11-21T10:48:32;21.35;;;17.42;;
42176;SDS011;28126;51.060;19.460;2022-11-21T11:01:24;19.40;;;16.67;;
42176;SDS011;28126;51.060;19.460;2022-11-21T11:04:34;20.00;;;17.02;;
42176;SDS011;28126;51.060;19.460;2022-11-21T11:07:36;23.00;;;17.70;;
42176;SDS011;28126;51.060;19.460;2022-11-21T11:10:39;21.87;;;19.00;;
42176;SDS011;28126;51.060;19.460;2022-11-21T11:13:57;26.42;;;19.50;;
42176;SDS011;28126;51.060;19.460;2022-11-21T11:17:12;21.68;;;18.57;;
42176;SDS011;28126;51.060;19.460;2022-11-21T11:20:34;23.12;;;19.77;;
42176;SDS011;28126;51.060;19.460;2022-11-21T11:23:43;24.90;;;20.30;;
42176;SDS011;28126;51.060;19.460;2022-11-21T11:32:55;25.65;;;18.95;;
42176;SDS011;28126;51.060;19.460;2022-11-21T11:36:00;28.10;;;19.35;;
42176;SDS011;28126;51.060;19.460;2022-11-21T11:39:17;24.55;;;19.35;;
42176;SDS011;28126;51.060;19.460;2022-11-21T11:50:17;23.00;;;19.17;;
42176;SDS011;28126;51.060;19.460;2022-11-21T11:53:35;21.52;;;17.45;;
42176;SDS011;28126;51.060;19.460;2022-11-21T11:56:43;23.22;;;19.40;;
42176;SDS011;28126;51.060;19.460;2022-11-21T11:59:48;24.77;;;19.60;;
42176;SDS011;28126;51.060;19.460;2022-11-21T13:04:04;25.75;;;22.20;;
42176;SDS011;28126;51.060;19.460;2022-11-21T13:07:09;26.48;;;22.52;;
42176;SDS011;28126;51.060;19.460;2022-11-21T13:10:13;26.93;;;21.10;;
42176;SDS011;28126;51.060;19.460;2022-11-21T13:13:18;24.85;;;20.70;;
42176;SDS011;28126;51.060;19.460;2022-11-21T13:16:26;27.02;;;21.55;;
42176;SDS011;28126;51.060;19.460;2022-11-21T13:19:41;26.37;;;21.37;;
42176;SDS011;28126;51.060;19.460;2022-11-21T13:22:52;25.97;;;21.45;;
42176;SDS011;28126;51.060;19.460;2022-11-21T13:25:57;26.07;;;19.57;;
42176;SDS011;28126;51.060;19.460;2022-11-21T13:29:14;23.50;;;18.17;;
42176;SDS011;28126;51.060;19.460;2022-11-21T13:32:35;20.57;;;17.55;;
42176;SDS011;28126;51.060;19.460;2022-11-21T13:42:04;20.97;;;16.55;;
42176;SDS011;28126;51.060;19.460;2022-11-21T13:45:36;18.05;;;15.85;;
42176;SDS011;28126;51.060;19.460;2022-11-21T13:48:57;18.65;;;16.20;;
42176;SDS011;28126;51.060;19.460;2022-11-21T14:02:43;17.85;;;15.63;;
42176;SDS011;28126;51.060;19.460;2022-11-21T14:06:03;19.48;;;14.95;;
42176;SDS011;28126;51.060;19.460;2022-11-21T14:09:28;19.23;;;15.78;;
42176;SDS011;28126;51.060;19.460;2022-11-21T14:12:37;19.50;;;15.78;;
42176;SDS011;28126;51.060;19.460;2022-11-21T14:15:45;19.90;;;16.30;;
42176;SDS011;28126;51.060;19.460;2022-11-21T14:18:56;17.52;;;14.65;;
42176;SDS011;28126;51.060;19.460;2022-11-21T14:21:58;20.62;;;15.28;;
42176;SDS011;28126;51.060;19.460;2022-11-21T14:25:04;20.52;;;15.55;;
42176;SDS011;28126;51.060;19.460;2022-11-21T14:31:13;16.67;;;13.15;;
42176;SDS011;28126;51.060;19.460;2022-11-21T14:34:25;16.65;;;13.32;;
42176;SDS011;28126;51.060;19.460;2022-11-21T14:37:28;16.23;;;13.05;;
42176;SDS011;28126;51.060;19.460;2022-11-21T14:40:30;16.48;;;13.08;;
42176;SDS011;28126;51.060;19.460;2022-11-21T14:43:32;17.60;;;13.65;;
42176;SDS011;28126;51.060;19.460;2022-11-21T14:46:34;17.73;;;12.50;;
42176;SDS011;28126;51.060;19.460;2022-11-21T14:49:38;18.27;;;13.20;;
42176;SDS011;28126;51.060;19.460;2022-11-21T14:52:41;15.32;;;12.45;;
42176;SDS011;28126;51.060;19.460;2022-11-21T14:55:43;15.48;;;12.70;;
42176;SDS011;28126;51.060;19.460;2022-11-21T14:58:53;17.40;;;12.35;;
42176;SDS011;28126;51.060;19.460;2022-11-21T15:01:59;17.50;;;12.58;;
42176;SDS011;28126;51.060;19.460;2022-11-21T15:05:14;16.42;;;12.13;;
42176;SDS011;28126;51.060;19.460;2022-11-21T15:08:20;16.97;;;12.05;;
42176;SDS011;28126;51.060;19.460;2022-11-21T15:14:44;16.52;;;12.28;;
42176;SDS011;28126;51.060;19.460;2022-11-21T15:17:53;15.93;;;11.45;;
42176;SDS011;28126;51.060;19.460;2022-11-21T15:20:57;14.43;;;11.18;;
42176;SDS011;28126;51.060;19.460;2022-11-21T15:24:26;16.30;;;11.80;;
42176;SDS011;28126;51.060;19.460;2022-11-21T15:27:31;14.70;;;11.53;;
42176;SDS011;28126;51.060;19.460;2022-11-21T15:30:34;15.75;;;12.28;;
42176;SDS011;28126;51.060;19.460;2022-11-21T15:40:17;14.58;;;11.28;;
42176;SDS011;28126;51.060;19.460;2022-11-21T15:46:50;15.18;;;12.68;;
42176;SDS011;28126;51.060;19.460;2022-11-21T15:49:52;17.50;;;12.90;;
42176;SDS011;28126;51.060;19.460;2022-11-21T15:52:54;14.50;;;11.60;;
42176;SDS011;28126;51.060;19.460;2022-11-21T15:55:55;16.10;;;12.82;;
42176;SDS011;28126;51.060;19.460;2022-11-21T15:58:56;14.50;;;12.13;;
42176;SDS011;28126;51.060;19.460;2022-11-21T16:01:59;14.07;;;12.53;;
42176;SDS011;28126;51.060;19.460;2022-11-21T16:05:00;14.53;;;12.43;;
42176;SDS011;28126;51.060;19.460;2022-11-21T16:08:02;14.28;;;11.78;;
42176;SDS011;28126;51.060;19.460;2022-11-21T16:11:05;15.53;;;12.25;;
42176;SDS011;28126;51.060;19.460;2022-11-21T16:14:07;16.50;;;12.28;;
42176;SDS011;28126;51.060;19.460;2022-11-21T16:17:14;16.62;;;13.48;;
42176;SDS011;28126;51.060;19.460;2022-11-21T16:20:16;15.78;;;12.18;;
42176;SDS011;28126;51.060;19.460;2022-11-21T16:23:17;16.57;;;13.22;;
42176;SDS011;28126;51.060;19.460;2022-11-21T16:26:18;16.30;;;12.25;;
42176;SDS011;28126;51.060;19.460;2022-11-21T16:29:20;16.48;;;12.43;;
42176;SDS011;28126;51.060;19.460;2022-11-21T16:32:23;15.05;;;12.53;;
42176;SDS011;28126;51.060;19.460;2022-11-21T16:35:25;16.40;;;13.22;;
42176;SDS011;28126;51.060;19.460;2022-11-21T16:38:27;14.43;;;12.50;;
42176;SDS011;28126;51.060;19.460;2022-11-21T16:41:29;14.55;;;12.35;;
42176;SDS011;28126;51.060;19.460;2022-11-21T16:44:31;14.40;;;12.88;;
42176;SDS011;28126;51.060;19.460;2022-11-21T16:47:34;18.70;;;13.15;;
42176;SDS011;28126;51.060;19.460;2022-11-21T16:50:37;15.20;;;12.88;;
42176;SDS011;28126;51.060;19.460;2022-11-21T16:53:39;15.35;;;12.28;;
42176;SDS011;28126;51.060;19.460;2022-11-21T16:56:41;14.50;;;11.97;;
42176;SDS011;28126;51.060;19.460;2022-11-21T16:59:42;14.05;;;11.88;;
42176;SDS011;28126;51.060;19.460;2022-11-21T17:02:44;15.18;;;11.95;;
42176;SDS011;28126;51.060;19.460;2022-11-21T17:05:55;15.25;;;12.10;;
42176;SDS011;28126;51.060;19.460;2022-11-21T17:08:59;17.48;;;11.93;;
42176;SDS011;28126;51.060;19.460;2022-11-21T17:12:02;16.17;;;12.28;;
42176;SDS011;28126;51.060;19.460;2022-11-21T17:15:04;13.78;;;11.48;;
42176;SDS011;28126;51.060;19.460;2022-11-21T17:18:08;13.08;;;11.18;;
42176;SDS011;28126;51.060;19.460;2022-11-21T17:21:12;13.93;;;12.30;;
42176;SDS011;28126;51.060;19.460;2022-11-21T17:24:15;14.20;;;12.40;;
42176;SDS011;28126;51.060;19.460;2022-11-21T17:27:18;14.78;;;12.03;;
42176;SDS011;28126;51.060;19.460;2022-11-21T17:30:20;14.40;;;12.35;;
42176;SDS011;28126;51.060;19.460;2022-11-21T17:33:22;16.17;;;12.20;;
42176;SDS011;28126;51.060;19.460;2022-11-21T17:36:25;14.65;;;12.93;;
42176;SDS011;28126;51.060;19.460;2022-11-21T17:39:29;16.37;;;14.03;;
42176;SDS011;28126;51.060;19.460;2022-11-21T17:42:30;16.40;;;13.55;;
42176;SDS011;28126;51.060;19.460;2022-11-21T17:45:36;18.20;;;14.63;;
42176;SDS011;28126;51.060;19.460;2022-11-21T17:48:36;15.53;;;13.60;;
42176;SDS011;28126;51.060;19.460;2022-11-21T17:51:38;15.20;;;13.45;;
42176;SDS011;28126;51.060;19.460;2022-11-21T17:54:40;17.37;;;14.18;;
42176;SDS011;28126;51.060;19.460;2022-11-21T17:57:42;16.55;;;14.18;;
42176;SDS011;28126;51.060;19.460;2022-11-21T18:00:43;16.67;;;13.15;;
42176;SDS011;28126;51.060;19.460;2022-11-21T18:03:45;17.27;;;14.13;;
42176;SDS011;28126;51.060;19.460;2022-11-21T18:06:48;17.23;;;13.95;;
42176;SDS011;28126;51.060;19.460;2022-11-21T18:58:59;19.40;;;16.35;;
42176;SDS011;28126;51.060;19.460;2022-11-21T19:02:02;19.92;;;17.23;;
42176;SDS011;28126;51.060;19.460;2022-11-21T19:05:04;19.02;;;16.00;;
42176;SDS011;28126;51.060;19.460;2022-11-21T19:08:09;25.92;;;16.62;;
42176;SDS011;28126;51.060;19.460;2022-11-21T19:11:11;24.43;;;15.70;;
42176;SDS011;28126;51.060;19.460;2022-11-21T19:14:17;18.90;;;15.03;;
42176;SDS011;28126;51.060;19.460;2022-11-21T19:17:18;23.20;;;15.35;;
42176;SDS011;28126;51.060;19.460;2022-11-21T19:20:19;22.27;;;17.30;;
42176;SDS011;28126;51.060;19.460;2022-11-21T19:23:22;22.17;;;16.10;;
42176;SDS011;28126;51.060;19.460;2022-11-21T19:26:23;20.75;;;15.55;;
42176;SDS011;28126;51.060;19.460;2022-11-21T19:29:24;20.30;;;14.00;;
42176;SDS011;28126;51.060;19.460;2022-11-21T19:32:26;19.32;;;14.15;;
42176;SDS011;28126;51.060;19.460;2022-11-21T19:35:29;15.18;;;12.53;;
42176;SDS011;28126;51.060;19.460;2022-11-21T19:38:31;16.85;;;13.18;;
42176;SDS011;28126;51.060;19.460;2022-11-21T19:41:34;16.45;;;12.70;;
42176;SDS011;28126;51.060;19.460;2022-11-21T19:44:36;16.65;;;13.05;;
42176;SDS011;28126;51.060;19.460;2022-11-21T19:47:38;15.23;;;12.85;;
42176;SDS011;28126;51.060;19.460;2022-11-21T19:50:39;16.20;;;12.55;;
42176;SDS011;28126;51.060;19.460;2022-11-21T19:53:40;14.63;;;12.45;;
42176;SDS011;28126;51.060;19.460;2022-11-21T19:56:44;16.27;;;13.28;;
42176;SDS011;28126;51.060;19.460;2022-11-21T19:59:48;14.85;;;12.73;;
42176;SDS011;28126;51.060;19.460;2022-11-21T20:02:50;17.25;;;13.10;;
42176;SDS011;28126;51.060;19.460;2022-11-21T20:05:52;15.13;;;11.95;;
42176;SDS011;28126;51.060;19.460;2022-11-21T20:09:06;15.85;;;12.58;;
42176;SDS011;28126;51.060;19.460;2022-11-21T20:12:11;15.70;;;13.58;;
42176;SDS011;28126;51.060;19.460;2022-11-21T20:15:12;15.50;;;12.75;;
42176;SDS011;28126;51.060;19.460;2022-11-21T20:18:14;16.70;;;12.70;;
42176;SDS011;28126;51.060;19.460;2022-11-21T20:21:16;15.78;;;13.05;;
42176;SDS011;28126;51.060;19.460;2022-11-21T20:24:20;16.70;;;12.93;;
42176;SDS011;28126;51.060;19.460;2022-11-21T20:27:23;16.35;;;13.75;;
42176;SDS011;28126;51.060;19.460;2022-11-21T20:30:25;15.25;;;13.18;;
42176;SDS011;28126;51.060;19.460;2022-11-21T20:33:27;14.15;;;11.95;;
42176;SDS011;28126;51.060;19.460;2022-11-21T20:36:31;17.17;;;12.88;;
42176;SDS011;28126;51.060;19.460;2022-11-21T20:39:37;14.40;;;12.33;;
42176;SDS011;28126;51.060;19.460;2022-11-21T20:42:38;15.48;;;12.30;;
42176;SDS011;28126;51.060;19.460;2022-11-21T20:45:40;15.32;;;12.58;;
42176;SDS011;28126;51.060;19.460;2022-11-21T20:48:44;14.05;;;10.93;;
42176;SDS011;28126;51.060;19.460;2022-11-21T20:51:45;14.07;;;12.13;;
42176;SDS011;28126;51.060;19.460;2022-11-21T20:54:49;22.75;;;12.82;;
42176;SDS011;28126;51.060;19.460;2022-11-21T20:57:51;16.00;;;12.85;;
42176;SDS011;28126;51.060;19.460;2022-11-21T21:00:53;13.98;;;12.45;;
42176;SDS011;28126;51.060;19.460;2022-11-21T21:03:56;13.58;;;11.80;;
42176;SDS011;28126;51.060;19.460;2022-11-21T21:06:57;14.20;;;11.60;;